Urb Las Monjitas, Puerto Rico
Current Conditions -  °F | °C
As of 9:50 AM on Thursday 23 Oct 2014 (Local Time) from TJBQ Reporting Station
Clear Clear  
Wind Chill: 86°   Ceiling: Unl
Heat Index: 90°   Visibility: 10mi
Dew Point: 70°   Wind: 9mph
Humidity: 58%   Direction: 100°E
Pressure: 29.97"   Gusts: NA
Location:  18.0152°N, 66.6246°W
Report Text: TJBQ 231350Z 10008KT 10SM SKC 30/21 A2997 RMK RWY 08- ATIS E
Loading
Personal Weather Stations






























Interactive Weather Map
Tropical Storm Tracking
New forecast layout! Learn more

10-Day Weather Forecast

Advertisements
Track Severe Weather on mobile